sensor_id;sensor_type;location;lat;lon;timestamp;P1;durP1;ratioP1;P2;durP2;ratioP2
66089;SDS011;53113;45.602;11.904;2022-09-09T00:03:36;10.80;;;4.70;;
66089;SDS011;53113;45.602;11.904;2022-09-09T00:06:54;10.30;;;4.40;;
66089;SDS011;53113;45.602;11.904;2022-09-09T00:09:16;8.50;;;4.50;;
66089;SDS011;53113;45.602;11.904;2022-09-09T00:14:20;8.80;;;4.90;;
66089;SDS011;53113;45.602;11.904;2022-09-09T00:16:50;9.50;;;4.30;;
66089;SDS011;53113;45.602;11.904;2022-09-09T00:21:55;8.50;;;4.30;;
66089;SDS011;53113;45.602;11.904;2022-09-09T00:24:42;9.90;;;4.70;;
66089;SDS011;53113;45.602;11.904;2022-09-09T00:30:18;8.80;;;5.10;;
66089;SDS011;53113;45.602;11.904;2022-09-09T00:32:54;8.80;;;4.80;;
66089;SDS011;53113;45.602;11.904;2022-09-09T00:35:29;9.40;;;4.70;;
66089;SDS011;53113;45.602;11.904;2022-09-09T00:41:04;9.00;;;4.70;;
66089;SDS011;53113;45.602;11.904;2022-09-09T00:43:40;7.80;;;4.70;;
66089;SDS011;53113;45.602;11.904;2022-09-09T00:49:19;9.70;;;5.30;;
66089;SDS011;53113;45.602;11.904;2022-09-09T00:54:48;9.40;;;4.90;;
66089;SDS011;53113;45.602;11.904;2022-09-09T00:57:29;9.10;;;4.40;;
66089;SDS011;53113;45.602;11.904;2022-09-09T01:05:24;10.00;;;5.30;;
66089;SDS011;53113;45.602;11.904;2022-09-09T01:08:00;9.20;;;5.50;;
66089;SDS011;53113;45.602;11.904;2022-09-09T01:13:15;9.20;;;5.00;;
66089;SDS011;53113;45.602;11.904;2022-09-09T01:15:48;8.90;;;4.70;;
66089;SDS011;53113;45.602;11.904;2022-09-09T01:18:17;9.10;;;5.00;;
66089;SDS011;53113;45.602;11.904;2022-09-09T01:20:49;8.80;;;5.00;;
66089;SDS011;53113;45.602;11.904;2022-09-09T01:26:08;8.70;;;5.20;;
66089;SDS011;53113;45.602;11.904;2022-09-09T01:28:40;10.50;;;5.40;;
66089;SDS011;53113;45.602;11.904;2022-09-09T01:31:11;9.50;;;5.00;;
66089;SDS011;53113;45.602;11.904;2022-09-09T01:33:42;8.80;;;4.80;;
66089;SDS011;53113;45.602;11.904;2022-09-09T01:36:10;9.60;;;4.70;;
66089;SDS011;53113;45.602;11.904;2022-09-09T01:38:47;10.10;;;5.40;;
66089;SDS011;53113;45.602;11.904;2022-09-09T01:41:13;9.70;;;5.40;;
66089;SDS011;53113;45.602;11.904;2022-09-09T01:43:39;11.30;;;5.10;;
66089;SDS011;53113;45.602;11.904;2022-09-09T01:46:04;10.30;;;5.50;;
66089;SDS011;53113;45.602;11.904;2022-09-09T01:48:31;8.60;;;4.90;;
66089;SDS011;53113;45.602;11.904;2022-09-09T01:50:57;9.10;;;5.20;;
66089;SDS011;53113;45.602;11.904;2022-09-09T01:53:22;10.30;;;5.30;;
66089;SDS011;53113;45.602;11.904;2022-09-09T02:03:53;11.80;;;5.20;;
66089;SDS011;53113;45.602;11.904;2022-09-09T02:06:27;8.70;;;4.30;;
66089;SDS011;53113;45.602;11.904;2022-09-09T02:08:59;10.00;;;4.50;;
66089;SDS011;53113;45.602;11.904;2022-09-09T02:11:29;9.50;;;4.40;;
66089;SDS011;53113;45.602;11.904;2022-09-09T02:14:18;10.00;;;4.20;;
66089;SDS011;53113;45.602;11.904;2022-09-09T02:16:48;8.70;;;4.30;;
66089;SDS011;53113;45.602;11.904;2022-09-09T02:19:21;8.10;;;3.60;;
66089;SDS011;53113;45.602;11.904;2022-09-09T02:21:52;9.30;;;3.60;;
66089;SDS011;53113;45.602;11.904;2022-09-09T02:24:21;8.10;;;3.80;;
66089;SDS011;53113;45.602;11.904;2022-09-09T02:26:48;8.60;;;3.60;;
66089;SDS011;53113;45.602;11.904;2022-09-09T02:29:19;6.90;;;3.20;;
66089;SDS011;53113;45.602;11.904;2022-09-09T02:31:53;7.90;;;3.30;;
66089;SDS011;53113;45.602;11.904;2022-09-09T02:34:24;7.10;;;3.00;;
66089;SDS011;53113;45.602;11.904;2022-09-09T02:36:53;6.70;;;2.60;;
66089;SDS011;53113;45.602;11.904;2022-09-09T02:39:20;7.90;;;3.00;;
66089;SDS011;53113;45.602;11.904;2022-09-09T02:41:46;8.10;;;3.30;;
66089;SDS011;53113;45.602;11.904;2022-09-09T02:44:16;7.40;;;3.40;;
66089;SDS011;53113;45.602;11.904;2022-09-09T02:52:14;8.00;;;2.60;;
66089;SDS011;53113;45.602;11.904;2022-09-09T02:54:43;9.40;;;3.00;;
66089;SDS011;53113;45.602;11.904;2022-09-09T02:57:19;7.60;;;2.60;;
66089;SDS011;53113;45.602;11.904;2022-09-09T02:59:49;6.50;;;2.90;;
66089;SDS011;53113;45.602;11.904;2022-09-09T03:02:17;7.90;;;2.80;;
66089;SDS011;53113;45.602;11.904;2022-09-09T03:04:44;8.10;;;3.40;;
66089;SDS011;53113;45.602;11.904;2022-09-09T03:07:10;7.10;;;3.00;;
66089;SDS011;53113;45.602;11.904;2022-09-09T03:09:36;7.40;;;3.10;;
66089;SDS011;53113;45.602;11.904;2022-09-09T03:12:02;6.70;;;2.30;;
66089;SDS011;53113;45.602;11.904;2022-09-09T03:14:29;8.30;;;2.90;;
66089;SDS011;53113;45.602;11.904;2022-09-09T03:16:55;6.30;;;2.70;;
66089;SDS011;53113;45.602;11.904;2022-09-09T03:19:23;6.70;;;2.90;;
66089;SDS011;53113;45.602;11.904;2022-09-09T03:21:50;7.20;;;2.90;;
66089;SDS011;53113;45.602;11.904;2022-09-09T03:24:16;5.40;;;2.80;;
66089;SDS011;53113;45.602;11.904;2022-09-09T03:26:41;6.50;;;2.70;;
66089;SDS011;53113;45.602;11.904;2022-09-09T03:29:10;5.70;;;2.40;;
66089;SDS011;53113;45.602;11.904;2022-09-09T03:31:38;6.20;;;2.40;;
66089;SDS011;53113;45.602;11.904;2022-09-09T03:34:04;7.20;;;2.70;;
66089;SDS011;53113;45.602;11.904;2022-09-09T03:36:31;8.60;;;3.10;;
66089;SDS011;53113;45.602;11.904;2022-09-09T03:38:57;9.30;;;2.70;;
66089;SDS011;53113;45.602;11.904;2022-09-09T03:41:23;8.80;;;3.00;;
66089;SDS011;53113;45.602;11.904;2022-09-09T03:43:52;6.60;;;2.90;;
66089;SDS011;53113;45.602;11.904;2022-09-09T03:46:20;7.10;;;2.70;;
66089;SDS011;53113;45.602;11.904;2022-09-09T03:48:47;7.30;;;2.60;;
66089;SDS011;53113;45.602;11.904;2022-09-09T03:51:12;5.80;;;2.50;;
66089;SDS011;53113;45.602;11.904;2022-09-09T03:53:38;7.40;;;2.60;;
66089;SDS011;53113;45.602;11.904;2022-09-09T03:56:04;8.80;;;2.80;;
66089;SDS011;53113;45.602;11.904;2022-09-09T03:58:34;8.50;;;2.90;;
66089;SDS011;53113;45.602;11.904;2022-09-09T04:01:05;7.50;;;2.70;;
66089;SDS011;53113;45.602;11.904;2022-09-09T04:03:38;7.10;;;2.80;;
66089;SDS011;53113;45.602;11.904;2022-09-09T04:06:06;5.20;;;2.60;;
66089;SDS011;53113;45.602;11.904;2022-09-09T04:08:34;5.20;;;2.80;;
66089;SDS011;53113;45.602;11.904;2022-09-09T04:11:01;6.50;;;2.60;;
66089;SDS011;53113;45.602;11.904;2022-09-09T04:13:30;7.50;;;3.20;;
66089;SDS011;53113;45.602;11.904;2022-09-09T04:15:57;7.10;;;3.10;;
66089;SDS011;53113;45.602;11.904;2022-09-09T04:18:24;6.90;;;3.20;;
66089;SDS011;53113;45.602;11.904;2022-09-09T04:20:51;8.10;;;3.00;;
66089;SDS011;53113;45.602;11.904;2022-09-09T04:23:19;5.40;;;2.70;;
66089;SDS011;53113;45.602;11.904;2022-09-09T04:25:46;7.10;;;3.90;;
66089;SDS011;53113;45.602;11.904;2022-09-09T04:28:14;8.60;;;3.40;;
66089;SDS011;53113;45.602;11.904;2022-09-09T04:30:41;7.00;;;3.40;;
66089;SDS011;53113;45.602;11.904;2022-09-09T04:33:07;8.60;;;3.90;;
66089;SDS011;53113;45.602;11.904;2022-09-09T04:35:35;10.20;;;4.20;;
66089;SDS011;53113;45.602;11.904;2022-09-09T04:38:01;10.80;;;3.60;;
66089;SDS011;53113;45.602;11.904;2022-09-09T04:40:28;7.80;;;3.10;;
66089;SDS011;53113;45.602;11.904;2022-09-09T04:42:55;6.60;;;2.90;;
66089;SDS011;53113;45.602;11.904;2022-09-09T04:45:23;7.20;;;3.20;;
66089;SDS011;53113;45.602;11.904;2022-09-09T04:47:49;8.30;;;3.10;;
66089;SDS011;53113;45.602;11.904;2022-09-09T04:50:14;8.00;;;3.30;;
66089;SDS011;53113;45.602;11.904;2022-09-09T04:52:41;7.00;;;3.20;;
66089;SDS011;53113;45.602;11.904;2022-09-09T04:55:07;8.60;;;3.50;;
66089;SDS011;53113;45.602;11.904;2022-09-09T04:57:34;7.70;;;3.10;;
66089;SDS011;53113;45.602;11.904;2022-09-09T04:59:59;7.70;;;2.90;;
66089;SDS011;53113;45.602;11.904;2022-09-09T05:02:27;10.20;;;3.80;;
66089;SDS011;53113;45.602;11.904;2022-09-09T05:04:53;7.90;;;3.70;;
66089;SDS011;53113;45.602;11.904;2022-09-09T05:07:19;8.80;;;3.90;;
66089;SDS011;53113;45.602;11.904;2022-09-09T05:09:44;7.90;;;3.90;;
66089;SDS011;53113;45.602;11.904;2022-09-09T05:12:12;7.80;;;3.60;;
66089;SDS011;53113;45.602;11.904;2022-09-09T05:14:38;8.30;;;4.10;;
66089;SDS011;53113;45.602;11.904;2022-09-09T05:17:03;6.90;;;3.40;;
66089;SDS011;53113;45.602;11.904;2022-09-09T05:19:29;9.40;;;3.90;;
66089;SDS011;53113;45.602;11.904;2022-09-09T05:21:56;7.60;;;3.70;;
66089;SDS011;53113;45.602;11.904;2022-09-09T05:24:22;8.20;;;4.00;;
66089;SDS011;53113;45.602;11.904;2022-09-09T05:26:51;10.70;;;4.50;;
66089;SDS011;53113;45.602;11.904;2022-09-09T05:29:17;8.70;;;4.30;;
66089;SDS011;53113;45.602;11.904;2022-09-09T05:31:44;7.20;;;3.50;;
66089;SDS011;53113;45.602;11.904;2022-09-09T05:34:11;11.00;;;3.70;;
66089;SDS011;53113;45.602;11.904;2022-09-09T05:36:37;8.30;;;3.90;;
66089;SDS011;53113;45.602;11.904;2022-09-09T05:39:03;9.10;;;4.00;;
66089;SDS011;53113;45.602;11.904;2022-09-09T05:41:29;8.50;;;4.10;;
66089;SDS011;53113;45.602;11.904;2022-09-09T05:43:55;10.10;;;3.90;;
66089;SDS011;53113;45.602;11.904;2022-09-09T05:46:22;8.40;;;3.30;;
66089;SDS011;53113;45.602;11.904;2022-09-09T05:48:50;8.40;;;3.60;;
66089;SDS011;53113;45.602;11.904;2022-09-09T05:51:18;11.00;;;3.60;;
66089;SDS011;53113;45.602;11.904;2022-09-09T05:53:50;9.00;;;4.10;;
66089;SDS011;53113;45.602;11.904;2022-09-09T05:56:21;7.70;;;3.60;;
66089;SDS011;53113;45.602;11.904;2022-09-09T05:58:50;6.70;;;3.40;;
66089;SDS011;53113;45.602;11.904;2022-09-09T06:01:20;9.20;;;3.60;;
66089;SDS011;53113;45.602;11.904;2022-09-09T06:03:50;8.50;;;3.20;;
66089;SDS011;53113;45.602;11.904;2022-09-09T06:06:18;8.50;;;3.50;;
66089;SDS011;53113;45.602;11.904;2022-09-09T06:08:48;8.40;;;3.20;;
66089;SDS011;53113;45.602;11.904;2022-09-09T06:13:44;9.20;;;3.50;;
66089;SDS011;53113;45.602;11.904;2022-09-09T06:16:13;8.70;;;3.30;;
66089;SDS011;53113;45.602;11.904;2022-09-09T06:18:41;8.00;;;3.40;;
66089;SDS011;53113;45.602;11.904;2022-09-09T06:21:15;7.70;;;3.30;;
66089;SDS011;53113;45.602;11.904;2022-09-09T06:23:43;7.90;;;3.10;;
66089;SDS011;53113;45.602;11.904;2022-09-09T06:26:17;7.80;;;3.40;;
66089;SDS011;53113;45.602;11.904;2022-09-09T06:28:50;8.00;;;3.30;;
66089;SDS011;53113;45.602;11.904;2022-09-09T06:31:18;6.40;;;2.90;;
66089;SDS011;53113;45.602;11.904;2022-09-09T06:33:47;8.40;;;3.50;;
66089;SDS011;53113;45.602;11.904;2022-09-09T06:36:17;7.30;;;3.60;;
66089;SDS011;53113;45.602;11.904;2022-09-09T06:38:45;6.90;;;3.50;;
66089;SDS011;53113;45.602;11.904;2022-09-09T06:41:12;7.50;;;3.50;;
66089;SDS011;53113;45.602;11.904;2022-09-09T06:43:40;10.80;;;3.60;;
66089;SDS011;53113;45.602;11.904;2022-09-09T06:46:12;8.20;;;3.10;;
66089;SDS011;53113;45.602;11.904;2022-09-09T06:48:47;6.90;;;3.10;;
66089;SDS011;53113;45.602;11.904;2022-09-09T06:51:20;8.50;;;3.60;;
66089;SDS011;53113;45.602;11.904;2022-09-09T06:53:49;6.90;;;3.10;;
66089;SDS011;53113;45.602;11.904;2022-09-09T06:58:41;6.60;;;3.30;;
66089;SDS011;53113;45.602;11.904;2022-09-09T07:01:09;8.20;;;3.70;;
66089;SDS011;53113;45.602;11.904;2022-09-09T07:03:39;6.70;;;3.30;;
66089;SDS011;53113;45.602;11.904;2022-09-09T07:06:07;8.20;;;3.70;;
66089;SDS011;53113;45.602;11.904;2022-09-09T07:08:34;8.40;;;3.60;;
66089;SDS011;53113;45.602;11.904;2022-09-09T07:11:03;7.30;;;3.50;;
66089;SDS011;53113;45.602;11.904;2022-09-09T07:13:31;8.70;;;3.70;;
66089;SDS011;53113;45.602;11.904;2022-09-09T07:16:05;7.90;;;3.20;;
66089;SDS011;53113;45.602;11.904;2022-09-09T07:18:32;8.40;;;3.50;;
66089;SDS011;53113;45.602;11.904;2022-09-09T07:20:59;10.90;;;3.60;;
66089;SDS011;53113;45.602;11.904;2022-09-09T07:23:27;9.50;;;3.30;;
66089;SDS011;53113;45.602;11.904;2022-09-09T07:25:54;8.90;;;3.00;;
66089;SDS011;53113;45.602;11.904;2022-09-09T07:28:20;6.80;;;3.20;;
66089;SDS011;53113;45.602;11.904;2022-09-09T07:33:21;7.70;;;3.10;;
66089;SDS011;53113;45.602;11.904;2022-09-09T07:35:48;10.90;;;3.50;;
66089;SDS011;53113;45.602;11.904;2022-09-09T07:38:14;6.20;;;2.70;;
66089;SDS011;53113;45.602;11.904;2022-09-09T07:40:40;7.60;;;2.80;;
66089;SDS011;53113;45.602;11.904;2022-09-09T07:43:06;9.10;;;3.10;;
66089;SDS011;53113;45.602;11.904;2022-09-09T07:45:32;7.30;;;3.30;;
66089;SDS011;53113;45.602;11.904;2022-09-09T07:47:59;8.50;;;3.30;;
66089;SDS011;53113;45.602;11.904;2022-09-09T07:50:25;7.70;;;3.20;;
66089;SDS011;53113;45.602;11.904;2022-09-09T07:52:52;7.80;;;3.10;;
66089;SDS011;53113;45.602;11.904;2022-09-09T07:55:19;7.80;;;2.90;;
66089;SDS011;53113;45.602;11.904;2022-09-09T07:57:45;9.10;;;3.00;;
66089;SDS011;53113;45.602;11.904;2022-09-09T08:00:12;9.20;;;3.10;;
66089;SDS011;53113;45.602;11.904;2022-09-09T08:02:40;9.90;;;3.00;;
66089;SDS011;53113;45.602;11.904;2022-09-09T08:05:06;8.20;;;3.10;;
66089;SDS011;53113;45.602;11.904;2022-09-09T08:07:32;7.20;;;3.10;;
66089;SDS011;53113;45.602;11.904;2022-09-09T08:09:58;5.90;;;3.00;;
66089;SDS011;53113;45.602;11.904;2022-09-09T08:12:27;9.00;;;2.70;;
66089;SDS011;53113;45.602;11.904;2022-09-09T08:14:52;7.30;;;3.10;;
66089;SDS011;53113;45.602;11.904;2022-09-09T08:17:19;8.60;;;3.00;;
66089;SDS011;53113;45.602;11.904;2022-09-09T08:19:45;7.70;;;3.10;;
66089;SDS011;53113;45.602;11.904;2022-09-09T08:22:11;8.60;;;3.40;;
66089;SDS011;53113;45.602;11.904;2022-09-09T08:24:36;6.40;;;2.70;;
66089;SDS011;53113;45.602;11.904;2022-09-09T08:27:02;8.40;;;2.70;;
66089;SDS011;53113;45.602;11.904;2022-09-09T08:29:27;7.50;;;2.70;;
66089;SDS011;53113;45.602;11.904;2022-09-09T08:31:54;7.00;;;2.60;;
66089;SDS011;53113;45.602;11.904;2022-09-09T08:34:23;8.50;;;2.60;;
66089;SDS011;53113;45.602;11.904;2022-09-09T08:36:51;7.30;;;2.60;;
66089;SDS011;53113;45.602;11.904;2022-09-09T08:39:18;9.60;;;2.70;;
66089;SDS011;53113;45.602;11.904;2022-09-09T08:45:00;7.10;;;2.60;;
66089;SDS011;53113;45.602;11.904;2022-09-09T08:50:36;7.00;;;2.80;;
66089;SDS011;53113;45.602;11.904;2022-09-09T08:55:46;6.30;;;2.20;;
66089;SDS011;53113;45.602;11.904;2022-09-09T08:58:30;8.90;;;2.60;;
66089;SDS011;53113;45.602;11.904;2022-09-09T09:09:08;4.80;;;2.10;;
66089;SDS011;53113;45.602;11.904;2022-09-09T09:11:59;5.80;;;2.20;;
66089;SDS011;53113;45.602;11.904;2022-09-09T09:14:30;7.30;;;2.70;;
66089;SDS011;53113;45.602;11.904;2022-09-09T09:19:26;5.00;;;2.20;;
66089;SDS011;53113;45.602;11.904;2022-09-09T09:21:56;8.80;;;2.20;;
66089;SDS011;53113;45.602;11.904;2022-09-09T09:27:16;6.80;;;2.70;;
66089;SDS011;53113;45.602;11.904;2022-09-09T09:29:48;6.10;;;2.20;;
66089;SDS011;53113;45.602;11.904;2022-09-09T09:32:16;5.90;;;2.40;;
66089;SDS011;53113;45.602;11.904;2022-09-09T09:34:53;8.20;;;2.50;;
66089;SDS011;53113;45.602;11.904;2022-09-09T09:37:31;5.30;;;2.30;;
66089;SDS011;53113;45.602;11.904;2022-09-09T09:40:10;5.40;;;2.20;;
66089;SDS011;53113;45.602;11.904;2022-09-09T09:42:38;7.20;;;2.20;;
66089;SDS011;53113;45.602;11.904;2022-09-09T09:45:26;5.80;;;2.40;;
66089;SDS011;53113;45.602;11.904;2022-09-09T09:48:04;6.20;;;2.20;;
66089;SDS011;53113;45.602;11.904;2022-09-09T09:50:32;8.60;;;2.70;;
66089;SDS011;53113;45.602;11.904;2022-09-09T09:53:03;7.30;;;2.40;;
66089;SDS011;53113;45.602;11.904;2022-09-09T09:55:30;6.60;;;2.30;;
66089;SDS011;53113;45.602;11.904;2022-09-09T09:58:05;8.20;;;2.40;;
66089;SDS011;53113;45.602;11.904;2022-09-09T10:00:50;5.40;;;2.10;;
66089;SDS011;53113;45.602;11.904;2022-09-09T10:03:24;6.00;;;2.10;;
66089;SDS011;53113;45.602;11.904;2022-09-09T10:05:51;6.20;;;2.20;;
66089;SDS011;53113;45.602;11.904;2022-09-09T10:08:18;5.70;;;2.30;;
66089;SDS011;53113;45.602;11.904;2022-09-09T10:19:50;6.30;;;2.40;;
66089;SDS011;53113;45.602;11.904;2022-09-09T10:22:27;7.20;;;2.30;;
66089;SDS011;53113;45.602;11.904;2022-09-09T10:25:03;5.70;;;2.10;;
66089;SDS011;53113;45.602;11.904;2022-09-09T10:30:47;5.80;;;2.30;;
66089;SDS011;53113;45.602;11.904;2022-09-09T10:33:09;6.10;;;2.10;;
66089;SDS011;53113;45.602;11.904;2022-09-09T10:41:13;6.30;;;2.10;;
66089;SDS011;53113;45.602;11.904;2022-09-09T10:52:06;7.70;;;2.50;;
66089;SDS011;53113;45.602;11.904;2022-09-09T10:55:00;5.60;;;2.00;;
66089;SDS011;53113;45.602;11.904;2022-09-09T10:57:29;6.10;;;2.10;;
66089;SDS011;53113;45.602;11.904;2022-09-09T11:00:06;6.40;;;2.00;;
66089;SDS011;53113;45.602;11.904;2022-09-09T11:02:41;7.30;;;2.30;;
66089;SDS011;53113;45.602;11.904;2022-09-09T11:08:02;7.80;;;2.40;;
66089;SDS011;53113;45.602;11.904;2022-09-09T11:13:15;7.30;;;2.00;;
66089;SDS011;53113;45.602;11.904;2022-09-09T11:16:16;7.10;;;2.10;;
66089;SDS011;53113;45.602;11.904;2022-09-09T11:18:55;5.40;;;2.30;;
66089;SDS011;53113;45.602;11.904;2022-09-09T11:21:29;7.10;;;2.30;;
66089;SDS011;53113;45.602;11.904;2022-09-09T11:24:04;6.60;;;2.30;;
66089;SDS011;53113;45.602;11.904;2022-09-09T11:26:39;6.20;;;2.10;;
66089;SDS011;53113;45.602;11.904;2022-09-09T11:29:56;7.80;;;2.40;;
66089;SDS011;53113;45.602;11.904;2022-09-09T11:34:53;5.90;;;2.40;;
66089;SDS011;53113;45.602;11.904;2022-09-09T11:40:27;6.50;;;2.40;;
66089;SDS011;53113;45.602;11.904;2022-09-09T11:45:34;6.20;;;2.50;;
66089;SDS011;53113;45.602;11.904;2022-09-09T11:48:02;7.90;;;2.60;;
66089;SDS011;53113;45.602;11.904;2022-09-09T11:50:32;7.90;;;2.20;;
66089;SDS011;53113;45.602;11.904;2022-09-09T11:53:06;8.30;;;2.50;;
66089;SDS011;53113;45.602;11.904;2022-09-09T11:55:59;7.40;;;2.50;;
66089;SDS011;53113;45.602;11.904;2022-09-09T11:58:41;5.30;;;2.50;;
66089;SDS011;53113;45.602;11.904;2022-09-09T12:01:43;5.30;;;2.20;;
66089;SDS011;53113;45.602;11.904;2022-09-09T12:04:15;5.60;;;2.20;;
66089;SDS011;53113;45.602;11.904;2022-09-09T12:06:43;6.70;;;2.40;;
66089;SDS011;53113;45.602;11.904;2022-09-09T12:11:50;5.50;;;2.20;;
66089;SDS011;53113;45.602;11.904;2022-09-09T12:17:20;6.50;;;2.70;;
66089;SDS011;53113;45.602;11.904;2022-09-09T12:19:48;6.60;;;2.10;;
66089;SDS011;53113;45.602;11.904;2022-09-09T12:25:36;6.40;;;2.30;;
66089;SDS011;53113;45.602;11.904;2022-09-09T12:28:17;6.90;;;2.20;;
66089;SDS011;53113;45.602;11.904;2022-09-09T12:33:42;5.00;;;2.50;;
66089;SDS011;53113;45.602;11.904;2022-09-09T12:36:29;6.50;;;2.40;;
66089;SDS011;53113;45.602;11.904;2022-09-09T12:38:58;6.50;;;2.10;;
66089;SDS011;53113;45.602;11.904;2022-09-09T12:41:40;4.50;;;2.10;;
66089;SDS011;53113;45.602;11.904;2022-09-09T12:44:08;6.10;;;2.40;;
66089;SDS011;53113;45.602;11.904;2022-09-09T12:46:38;6.60;;;2.40;;
66089;SDS011;53113;45.602;11.904;2022-09-09T12:52:04;5.20;;;2.40;;
66089;SDS011;53113;45.602;11.904;2022-09-09T12:54:42;7.90;;;2.50;;
66089;SDS011;53113;45.602;11.904;2022-09-09T12:57:16;9.90;;;2.80;;
66089;SDS011;53113;45.602;11.904;2022-09-09T12:59:43;11.20;;;2.80;;
66089;SDS011;53113;45.602;11.904;2022-09-09T13:02:21;11.80;;;2.20;;
66089;SDS011;53113;45.602;11.904;2022-09-09T13:04:48;5.50;;;1.50;;
66089;SDS011;53113;45.602;11.904;2022-09-09T13:07:15;5.60;;;1.50;;
66089;SDS011;53113;45.602;11.904;2022-09-09T13:09:43;2.30;;;0.90;;
66089;SDS011;53113;45.602;11.904;2022-09-09T13:12:12;3.20;;;0.80;;
66089;SDS011;53113;45.602;11.904;2022-09-09T13:14:46;3.70;;;1.00;;
66089;SDS011;53113;45.602;11.904;2022-09-09T13:17:22;3.60;;;0.70;;
66089;SDS011;53113;45.602;11.904;2022-09-09T13:19:50;2.50;;;0.60;;
66089;SDS011;53113;45.602;11.904;2022-09-09T13:27:50;1.90;;;1.00;;
66089;SDS011;53113;45.602;11.904;2022-09-09T13:30:20;3.30;;;1.20;;
66089;SDS011;53113;45.602;11.904;2022-09-09T13:35:29;2.10;;;1.10;;
66089;SDS011;53113;45.602;11.904;2022-09-09T13:37:55;2.30;;;1.00;;
66089;SDS011;53113;45.602;11.904;2022-09-09T13:40:22;3.20;;;1.10;;
66089;SDS011;53113;45.602;11.904;2022-09-09T13:42:52;5.50;;;1.40;;
66089;SDS011;53113;45.602;11.904;2022-09-09T13:45:22;5.90;;;1.50;;
66089;SDS011;53113;45.602;11.904;2022-09-09T13:47:52;3.00;;;1.50;;
66089;SDS011;53113;45.602;11.904;2022-09-09T13:50:29;7.20;;;1.60;;
66089;SDS011;53113;45.602;11.904;2022-09-09T13:52:55;5.90;;;1.60;;
66089;SDS011;53113;45.602;11.904;2022-09-09T13:55:26;4.80;;;1.60;;
66089;SDS011;53113;45.602;11.904;2022-09-09T13:57:54;6.20;;;1.90;;
66089;SDS011;53113;45.602;11.904;2022-09-09T14:00:28;6.20;;;2.30;;
66089;SDS011;53113;45.602;11.904;2022-09-09T14:02:56;7.60;;;2.90;;
66089;SDS011;53113;45.602;11.904;2022-09-09T14:05:22;6.00;;;2.80;;
66089;SDS011;53113;45.602;11.904;2022-09-09T14:07:48;6.30;;;2.80;;
66089;SDS011;53113;45.602;11.904;2022-09-09T14:10:15;6.80;;;2.40;;
66089;SDS011;53113;45.602;11.904;2022-09-09T14:12:40;5.60;;;2.00;;
66089;SDS011;53113;45.602;11.904;2022-09-09T14:15:06;6.00;;;2.00;;
66089;SDS011;53113;45.602;11.904;2022-09-09T14:17:34;4.80;;;2.00;;
66089;SDS011;53113;45.602;11.904;2022-09-09T14:20:02;5.40;;;2.10;;
66089;SDS011;53113;45.602;11.904;2022-09-09T14:22:30;6.60;;;1.80;;
66089;SDS011;53113;45.602;11.904;2022-09-09T14:24:56;5.10;;;1.60;;
66089;SDS011;53113;45.602;11.904;2022-09-09T14:27:22;4.00;;;1.60;;
66089;SDS011;53113;45.602;11.904;2022-09-09T14:29:48;3.60;;;1.50;;
66089;SDS011;53113;45.602;11.904;2022-09-09T14:32:14;3.30;;;1.60;;
66089;SDS011;53113;45.602;11.904;2022-09-09T14:34:40;5.70;;;2.40;;
66089;SDS011;53113;45.602;11.904;2022-09-09T14:37:05;4.90;;;2.20;;
66089;SDS011;53113;45.602;11.904;2022-09-09T14:39:31;5.60;;;2.00;;
66089;SDS011;53113;45.602;11.904;2022-09-09T14:41:57;6.10;;;1.90;;
66089;SDS011;53113;45.602;11.904;2022-09-09T14:44:23;5.50;;;1.90;;
66089;SDS011;53113;45.602;11.904;2022-09-09T14:46:49;5.20;;;2.10;;
66089;SDS011;53113;45.602;11.904;2022-09-09T14:49:15;5.30;;;2.00;;
66089;SDS011;53113;45.602;11.904;2022-09-09T14:51:41;6.60;;;2.00;;
66089;SDS011;53113;45.602;11.904;2022-09-09T14:54:07;4.70;;;2.20;;
66089;SDS011;53113;45.602;11.904;2022-09-09T14:56:33;5.30;;;1.80;;
66089;SDS011;53113;45.602;11.904;2022-09-09T14:59:00;5.40;;;2.00;;
66089;SDS011;53113;45.602;11.904;2022-09-09T15:01:27;4.80;;;1.80;;
66089;SDS011;53113;45.602;11.904;2022-09-09T15:04:00;5.40;;;1.60;;
66089;SDS011;53113;45.602;11.904;2022-09-09T15:06:29;4.70;;;1.80;;
66089;SDS011;53113;45.602;11.904;2022-09-09T15:08:58;4.50;;;1.50;;
66089;SDS011;53113;45.602;11.904;2022-09-09T15:11:25;4.60;;;1.70;;
66089;SDS011;53113;45.602;11.904;2022-09-09T15:13:53;3.80;;;1.60;;
66089;SDS011;53113;45.602;11.904;2022-09-09T15:16:20;5.30;;;1.70;;
66089;SDS011;53113;45.602;11.904;2022-09-09T15:18:50;4.50;;;1.70;;
66089;SDS011;53113;45.602;11.904;2022-09-09T15:21:17;5.10;;;1.90;;
66089;SDS011;53113;45.602;11.904;2022-09-09T15:23:45;4.90;;;1.80;;
66089;SDS011;53113;45.602;11.904;2022-09-09T15:26:12;4.20;;;1.70;;
66089;SDS011;53113;45.602;11.904;2022-09-09T15:28:41;7.20;;;1.90;;
66089;SDS011;53113;45.602;11.904;2022-09-09T15:33:38;4.60;;;1.70;;
66089;SDS011;53113;45.602;11.904;2022-09-09T15:36:14;6.80;;;1.70;;
66089;SDS011;53113;45.602;11.904;2022-09-09T15:38:42;3.90;;;1.30;;
66089;SDS011;53113;45.602;11.904;2022-09-09T15:41:09;4.80;;;1.60;;
66089;SDS011;53113;45.602;11.904;2022-09-09T15:43:36;5.20;;;1.60;;
66089;SDS011;53113;45.602;11.904;2022-09-09T15:46:44;4.50;;;1.30;;
66089;SDS011;53113;45.602;11.904;2022-09-09T15:49:06;4.50;;;1.80;;
66089;SDS011;53113;45.602;11.904;2022-09-09T15:51:34;4.90;;;1.60;;
66089;SDS011;53113;45.602;11.904;2022-09-09T15:54:00;6.70;;;2.40;;
66089;SDS011;53113;45.602;11.904;2022-09-09T15:56:26;6.40;;;2.00;;
66089;SDS011;53113;45.602;11.904;2022-09-09T15:58:57;3.70;;;1.90;;
66089;SDS011;53113;45.602;11.904;2022-09-09T16:01:25;3.10;;;1.50;;
66089;SDS011;53113;45.602;11.904;2022-09-09T16:03:52;5.40;;;1.60;;
66089;SDS011;53113;45.602;11.904;2022-09-09T16:06:19;4.20;;;1.80;;
66089;SDS011;53113;45.602;11.904;2022-09-09T16:11:25;3.90;;;1.50;;
66089;SDS011;53113;45.602;11.904;2022-09-09T16:13:59;5.20;;;1.70;;
66089;SDS011;53113;45.602;11.904;2022-09-09T16:16:26;3.10;;;1.40;;
66089;SDS011;53113;45.602;11.904;2022-09-09T16:18:54;7.00;;;1.80;;
66089;SDS011;53113;45.602;11.904;2022-09-09T16:21:22;5.80;;;1.80;;
66089;SDS011;53113;45.602;11.904;2022-09-09T16:23:54;4.30;;;1.90;;
66089;SDS011;53113;45.602;11.904;2022-09-09T16:26:21;5.20;;;2.10;;
66089;SDS011;53113;45.602;11.904;2022-09-09T16:28:48;5.90;;;2.10;;
66089;SDS011;53113;45.602;11.904;2022-09-09T16:31:21;7.20;;;2.00;;
66089;SDS011;53113;45.602;11.904;2022-09-09T16:33:49;6.40;;;1.70;;
66089;SDS011;53113;45.602;11.904;2022-09-09T16:36:22;4.20;;;1.80;;
66089;SDS011;53113;45.602;11.904;2022-09-09T16:38:56;4.90;;;1.60;;
66089;SDS011;53113;45.602;11.904;2022-09-09T16:41:27;6.20;;;2.00;;
66089;SDS011;53113;45.602;11.904;2022-09-09T16:43:54;4.70;;;2.60;;
66089;SDS011;53113;45.602;11.904;2022-09-09T16:46:22;5.90;;;1.90;;
66089;SDS011;53113;45.602;11.904;2022-09-09T16:48:49;5.00;;;2.40;;
66089;SDS011;53113;45.602;11.904;2022-09-09T16:51:16;5.70;;;1.90;;
66089;SDS011;53113;45.602;11.904;2022-09-09T16:53:42;3.80;;;1.70;;
66089;SDS011;53113;45.602;11.904;2022-09-09T16:56:10;5.80;;;1.80;;
66089;SDS011;53113;45.602;11.904;2022-09-09T16:58:41;5.60;;;2.20;;
66089;SDS011;53113;45.602;11.904;2022-09-09T17:01:10;4.20;;;1.90;;
66089;SDS011;53113;45.602;11.904;2022-09-09T17:03:39;4.50;;;1.80;;
66089;SDS011;53113;45.602;11.904;2022-09-09T17:06:09;4.00;;;1.90;;
66089;SDS011;53113;45.602;11.904;2022-09-09T17:08:36;4.80;;;1.90;;
66089;SDS011;53113;45.602;11.904;2022-09-09T17:11:12;5.20;;;1.70;;